Time;durP1;ratioP1;P1;durP2;ratioP2;P2;SDS_P1;SDS_P2;PMS_P1;PMS_P2;Temp;Humidity;BMP_temperature;BMP_pressure;BME280_temperature;BME280_humidity;BME280_pressure;Samples;Min_cycle;Max_cycle;Signal;HPM_P1;HPM_P2
2022/12/18 00:01:36;;;;;;;15.17;6.63;;;-5.70;99.90;;;;;;4995565;28;20026;-66
2022/12/18 00:04:04;;;;;;;14.00;5.50;;;-5.70;99.90;;;;;;4997586;28;20109;-66
2022/12/18 00:06:30;;;;;;;19.37;7.37;;;-5.70;99.90;;;;;;4998442;28;20034;-68
2022/12/18 00:08:57;;;;;;;11.90;6.17;;;-5.70;99.90;;;;;;4999484;28;20496;-66
2022/12/18 00:11:25;;;;;;;16.23;7.03;;;-5.70;99.90;;;;;;4995127;28;20022;-67
2022/12/18 00:13:53;;;;;;;16.77;6.40;;;-5.60;99.90;;;;;;4992017;28;20435;-67
2022/12/18 00:16:21;;;;;;;17.70;7.80;;;-5.80;99.90;;;;;;4997956;28;20030;-66
2022/12/18 00:18:48;;;;;;;19.90;6.83;;;-5.80;99.90;;;;;;4996457;28;20522;-67
2022/12/18 00:21:14;;;;;;;13.50;6.00;;;-5.70;99.90;;;;;;4994466;28;20100;-67
2022/12/18 00:23:41;;;;;;;16.23;6.60;;;-5.70;99.90;;;;;;4993742;28;20026;-69
2022/12/18 00:26:11;;;;;;;15.77;6.80;;;-5.50;99.90;;;;;;4992716;28;20026;-67
2022/12/18 00:28:37;;;;;;;17.97;6.93;;;-5.50;99.90;;;;;;4997343;28;20021;-66
2022/12/18 00:31:08;;;;;;;16.57;6.97;;;-5.50;99.90;;;;;;5004933;28;20050;-67
2022/12/18 00:33:34;;;;;;;14.23;6.40;;;-5.40;99.90;;;;;;4998799;28;20368;-66
2022/12/18 00:36:15;;;;;;;21.00;6.90;;;-5.40;99.90;;;;;;4994788;28;20050;-67
2022/12/18 00:38:41;;;;;;;15.50;6.63;;;-5.40;99.90;;;;;;5001952;28;20026;-67
2022/12/18 00:41:08;;;;;;;18.67;7.27;;;-5.30;99.90;;;;;;4999961;28;20096;-67
2022/12/18 00:43:34;;;;;;;12.10;5.87;;;-5.30;99.90;;;;;;5009586;28;20030;-67
2022/12/18 00:46:00;;;;;;;10.70;5.17;;;-5.20;99.90;;;;;;5001821;28;20030;-67
2022/12/18 00:48:26;;;;;;;11.77;6.20;;;-5.30;99.90;;;;;;4993501;28;20057;-67
2022/12/18 00:50:51;;;;;;;18.70;6.40;;;-5.30;99.90;;;;;;4996229;28;20037;-67
2022/12/18 00:53:18;;;;;;;13.00;6.47;;;-5.30;99.90;;;;;;4995986;28;20190;-67
2022/12/18 00:55:45;;;;;;;15.50;6.90;;;-5.40;99.90;;;;;;4996987;28;20023;-66
2022/12/18 00:58:12;;;;;;;13.37;5.90;;;-5.40;99.90;;;;;;5006235;28;20034;-67
2022/12/18 01:00:37;;;;;;;16.40;6.37;;;-5.50;99.90;;;;;;5003302;28;21444;-66
2022/12/18 01:03:04;;;;;;;18.57;7.40;;;-5.40;99.90;;;;;;5003987;28;20052;-68
2022/12/18 01:05:29;;;;;;;13.33;6.33;;;-5.40;99.90;;;;;;5003971;28;20025;-67
2022/12/18 01:07:55;;;;;;;20.60;7.83;;;-5.50;99.90;;;;;;5003291;28;20507;-67
2022/12/18 01:10:21;;;;;;;14.93;6.73;;;-5.50;99.90;;;;;;4994610;28;20050;-67
2022/12/18 01:12:47;;;;;;;12.53;6.67;;;-5.50;99.90;;;;;;4998808;28;20060;-68
2022/12/18 01:15:13;;;;;;;12.90;6.17;;;-5.50;99.90;;;;;;5003790;28;20037;-68
2022/12/18 01:17:39;;;;;;;12.77;5.80;;;-5.60;99.90;;;;;;5005429;28;20080;-67
2022/12/18 01:20:05;;;;;;;15.07;6.30;;;-5.70;99.90;;;;;;5001044;28;20105;-67
2022/12/18 01:22:31;;;;;;;16.97;6.97;;;-5.80;99.90;;;;;;4999967;28;20029;-67
2022/12/18 01:24:56;;;;;;;14.23;7.07;;;-5.80;99.90;;;;;;5001028;28;20022;-65
2022/12/18 01:27:22;;;;;;;15.97;6.37;;;-5.90;99.90;;;;;;4999457;28;20060;-67
2022/12/18 01:29:48;;;;;;;14.20;6.77;;;-5.90;99.90;;;;;;4996508;28;20392;-67
2022/12/18 01:32:14;;;;;;;13.43;6.83;;;-5.90;99.90;;;;;;4992387;28;20842;-67
2022/12/18 01:34:40;;;;;;;16.63;6.83;;;-6.00;99.90;;;;;;4999106;28;20023;-67
2022/12/18 01:37:05;;;;;;;12.17;6.27;;;-6.00;99.90;;;;;;5003274;28;20033;-67
2022/12/18 01:39:31;;;;;;;14.10;5.73;;;-5.90;99.90;;;;;;5002353;28;20023;-66
2022/12/18 01:42:01;;;;;;;15.73;6.00;;;-5.90;99.90;;;;;;5007295;28;20101;-67
2022/12/18 01:45:04;;;;;;;15.00;6.80;;;-5.80;99.90;;;;;;4999273;28;20025;-67
2022/12/18 01:47:53;;;;;;;15.23;6.80;;;-5.80;99.90;;;;;;5006461;28;20550;-68
2022/12/18 01:50:41;;;;;;;14.93;5.60;;;-5.80;99.90;;;;;;4985057;28;20064;-68
2022/12/18 01:53:17;;;;;;;13.30;6.00;;;-5.90;99.90;;;;;;4998816;28;20053;-66
2022/12/18 01:55:52;;;;;;;16.90;6.20;;;-5.90;99.90;;;;;;4997441;28;20173;-68
2022/12/18 01:58:22;;;;;;;14.30;6.17;;;-5.80;99.90;;;;;;5011419;28;20072;-67
2022/12/18 02:00:48;;;;;;;15.13;6.47;;;-5.60;99.90;;;;;;5012357;28;20384;-68
2022/12/18 02:03:13;;;;;;;15.07;6.33;;;-5.60;99.90;;;;;;5010628;28;20026;-68
2022/12/18 02:05:57;;;;;;;12.07;5.20;;;-5.60;99.90;;;;;;5009504;28;20030;-68
2022/12/18 02:08:39;;;;;;;13.37;6.07;;;-5.60;99.90;;;;;;5010881;28;20168;-67
2022/12/18 02:11:18;;;;;;;14.03;7.07;;;-5.60;99.90;;;;;;5011706;28;20272;-66
2022/12/18 02:14:09;;;;;;;18.60;6.37;;;-5.60;99.90;;;;;;5010810;28;20025;-68
2022/12/18 02:16:46;;;;;;;14.23;5.63;;;-5.60;99.90;;;;;;5011363;28;20057;-67
2022/12/18 02:19:37;;;;;;;12.80;6.03;;;-5.50;99.90;;;;;;5009287;28;20114;-66
2022/12/18 02:22:03;;;;;;;12.10;6.33;;;-5.40;99.90;;;;;;4991132;28;20038;-67
2022/12/18 02:24:52;;;;;;;12.77;5.70;;;-5.30;99.90;;;;;;4998794;28;20026;-67
2022/12/18 02:27:18;;;;;;;8.50;4.67;;;-5.30;99.90;;;;;;5011477;28;20534;-68
2022/12/18 02:29:50;;;;;;;13.50;5.57;;;-5.20;99.90;;;;;;5010879;28;20029;-67
2022/12/18 02:32:24;;;;;;;10.60;4.97;;;-5.30;99.90;;;;;;4998633;28;20049;-66
2022/12/18 02:34:51;;;;;;;14.88;6.30;;;-5.30;99.90;;;;;;5010951;28;20062;-67
2022/12/18 02:37:19;;;;;;;13.13;6.13;;;-5.50;99.90;;;;;;5007860;28;20130;-67
2022/12/18 02:39:47;;;;;;;10.43;5.17;;;-5.60;99.90;;;;;;5005636;28;20026;-67
2022/12/18 02:42:14;;;;;;;16.70;5.90;;;-5.70;99.90;;;;;;5011984;28;20049;-67
2022/12/18 02:44:47;;;;;;;11.63;5.63;;;-5.70;99.90;;;;;;5016316;28;20060;-68
2022/12/18 02:47:16;;;;;;;10.73;5.03;;;-5.90;99.90;;;;;;5015672;28;20085;-67
2022/12/18 02:49:58;;;;;;;14.83;5.87;;;-6.00;99.90;;;;;;5004641;28;20041;-66
2022/12/18 02:52:36;;;;;;;13.33;5.60;;;-6.10;99.90;;;;;;5010852;28;20021;-67
2022/12/18 02:55:16;;;;;;;18.00;5.80;;;-6.20;99.90;;;;;;5009025;28;20424;-67
2022/12/18 02:58:01;;;;;;;15.70;6.17;;;-6.30;99.90;;;;;;5006660;28;20029;-68
2022/12/18 03:00:45;;;;;;;13.17;6.10;;;-6.20;99.90;;;;;;5009449;28;20021;-67
2022/12/18 03:03:18;;;;;;;16.15;5.50;;;-6.30;99.90;;;;;;5011044;28;20173;-67
2022/12/18 03:06:10;;;;;;;11.82;4.93;;;-6.20;99.90;;;;;;5004739;28;20108;-67
2022/12/18 03:08:43;;;;;;;15.03;5.47;;;-6.20;99.90;;;;;;5009604;28;20030;-67
2022/12/18 03:11:11;;;;;;;11.47;5.13;;;-6.20;99.90;;;;;;5009235;28;20021;-67
2022/12/18 03:13:48;;;;;;;13.17;6.03;;;-6.20;99.90;;;;;;5007611;28;20044;-65
2022/12/18 03:16:23;;;;;;;19.23;6.27;;;-6.20;99.90;;;;;;5009998;28;20057;-67
2022/12/18 03:19:11;;;;;;;11.10;5.50;;;-6.00;99.90;;;;;;5009325;28;20030;-67
2022/12/18 03:21:42;;;;;;;22.27;6.50;;;-5.90;99.90;;;;;;5009590;28;20037;-65
2022/12/18 03:24:10;;;;;;;11.67;4.37;;;-6.00;99.90;;;;;;5009162;28;20053;-67
2022/12/18 03:26:40;;;;;;;17.83;6.47;;;-6.00;99.90;;;;;;5009382;28;20036;-68
2022/12/18 03:29:40;;;;;;;16.97;5.83;;;-6.00;99.90;;;;;;5009608;28;20034;-69
2022/12/18 03:32:12;;;;;;;11.03;4.93;;;-5.80;99.90;;;;;;4996432;28;20042;-67
2022/12/18 03:34:41;;;;;;;13.47;5.40;;;-5.80;99.90;;;;;;5010053;28;20034;-66
2022/12/18 03:37:07;;;;;;;16.90;5.93;;;-5.70;99.90;;;;;;5008647;28;20030;-67
2022/12/18 03:39:34;;;;;;;17.30;5.53;;;-5.70;99.90;;;;;;5010170;28;20033;-67
2022/12/18 03:42:15;;;;;;;12.30;5.33;;;-5.70;99.90;;;;;;5007707;28;20045;-68
2022/12/18 03:45:18;;;;;;;9.33;4.43;;;-5.70;99.90;;;;;;5002335;28;20140;-68
2022/12/18 03:48:08;;;;;;;14.90;5.20;;;-5.70;99.90;;;;;;4975042;28;20046;-66
2022/12/18 03:51:05;;;;;;;19.53;5.87;;;-5.70;99.90;;;;;;5008406;28;20026;-67
2022/12/18 03:53:50;;;;;;;17.17;4.53;;;-5.70;99.90;;;;;;5009360;28;20120;-67
2022/12/18 03:56:18;;;;;;;9.30;4.50;;;-5.70;99.90;;;;;;5008332;28;20125;-67
2022/12/18 03:58:45;;;;;;;15.57;4.70;;;-5.80;99.90;;;;;;5006405;28;20025;-68
2022/12/18 04:01:14;;;;;;;9.30;4.60;;;-5.80;99.90;;;;;;5008915;28;20037;-67
2022/12/18 04:03:42;;;;;;;13.80;5.30;;;-5.80;99.90;;;;;;5004251;28;20087;-67
2022/12/18 04:06:08;;;;;;;10.13;4.60;;;-5.70;99.90;;;;;;5004313;28;20058;-68
2022/12/18 04:08:34;;;;;;;11.80;4.90;;;-5.70;99.90;;;;;;5009827;28;20030;-69
2022/12/18 04:11:01;;;;;;;10.23;4.83;;;-5.70;99.90;;;;;;5007552;28;20033;-67
2022/12/18 04:13:35;;;;;;;10.37;4.17;;;-5.60;99.90;;;;;;5009615;28;20403;-68
2022/12/18 04:16:01;;;;;;;;;;;-5.60;99.90;;;;;;5010764;28;20022;-66
2022/12/18 04:18:27;;;;;;;10.70;4.60;;;-5.50;99.90;;;;;;5011458;28;19955;-67
2022/12/18 04:20:52;;;;;;;10.57;4.70;;;-5.70;99.90;;;;;;5007811;28;20026;-67
2022/12/18 04:23:18;;;;;;;10.47;5.67;;;-5.60;99.90;;;;;;5009693;28;20034;-67
2022/12/18 04:25:43;;;;;;;12.30;4.47;;;-5.70;99.90;;;;;;5005828;28;20060;-67
2022/12/18 04:28:09;;;;;;;9.73;4.43;;;-5.70;99.90;;;;;;5008848;28;20479;-67
2022/12/18 04:30:35;;;;;;;12.30;5.10;;;-5.60;99.90;;;;;;5007751;28;20037;-68
2022/12/18 04:33:00;;;;;;;9.40;4.57;;;-5.60;99.90;;;;;;4998951;28;20543;-67
2022/12/18 04:35:26;;;;;;;11.70;5.00;;;-5.60;99.90;;;;;;5008454;28;20034;-67
2022/12/18 04:37:51;;;;;;;15.80;5.97;;;-5.70;99.90;;;;;;5008015;28;20069;-67
2022/12/18 04:40:17;;;;;;;10.20;4.73;;;-5.80;99.90;;;;;;5008016;28;20069;-66
2022/12/18 04:42:42;;;;;;;13.60;5.97;;;-5.80;99.90;;;;;;5008858;28;20026;-67
2022/12/18 04:45:08;;;;;;;12.87;4.67;;;-5.80;99.90;;;;;;5009101;28;20549;-68
2022/12/18 04:47:34;;;;;;;9.23;4.67;;;-5.80;99.90;;;;;;5007160;28;20442;-68
2022/12/18 04:50:00;;;;;;;12.03;5.07;;;-5.80;99.90;;;;;;5019346;28;20044;-67
2022/12/18 04:52:25;;;;;;;11.03;5.30;;;-5.80;99.90;;;;;;5014902;28;20038;-67
2022/12/18 04:54:51;;;;;;;10.43;5.03;;;-5.90;99.90;;;;;;5011441;28;20145;-67
2022/12/18 04:57:17;;;;;;;12.90;5.70;;;-5.90;99.90;;;;;;5012035;28;20018;-67
2022/12/18 04:59:44;;;;;;;11.57;5.77;;;-5.90;99.90;;;;;;5011442;28;20018;-67
2022/12/18 05:02:09;;;;;;;12.17;5.50;;;-5.80;99.90;;;;;;5017051;28;20113;-67
2022/12/18 05:04:35;;;;;;;12.43;5.57;;;-5.80;99.90;;;;;;5016072;28;20081;-66
2022/12/18 05:07:01;;;;;;;12.70;5.40;;;-5.80;99.90;;;;;;5012959;28;20038;-67
2022/12/18 05:09:26;;;;;;;18.07;6.47;;;-5.90;99.90;;;;;;5010348;28;20030;-67
2022/12/18 05:11:52;;;;;;;14.27;5.40;;;-5.90;99.90;;;;;;5011478;28;20065;-67
2022/12/18 05:14:17;;;;;;;14.37;5.47;;;-6.00;99.90;;;;;;5012630;28;20049;-67
2022/12/18 05:16:43;;;;;;;13.33;5.77;;;-6.00;99.90;;;;;;5012609;28;20036;-68
2022/12/18 05:19:08;;;;;;;15.20;6.20;;;-6.00;99.90;;;;;;5008520;28;20053;-67
2022/12/18 05:21:34;;;;;;;15.20;6.80;;;-5.90;99.90;;;;;;5015007;28;20029;-67
2022/12/18 05:24:00;;;;;;;10.87;5.67;;;-5.90;99.90;;;;;;5011395;28;20030;-68
2022/12/18 05:26:25;;;;;;;16.00;5.77;;;-5.90;99.90;;;;;;5022176;28;20483;-68
2022/12/18 05:28:51;;;;;;;15.10;6.27;;;-5.80;99.90;;;;;;5011023;28;20406;-67
2022/12/18 05:31:16;;;;;;;14.03;5.67;;;-5.80;99.90;;;;;;5011796;28;20034;-68
2022/12/18 05:33:42;;;;;;;18.23;6.10;;;-5.90;99.90;;;;;;5001894;28;20092;-68
2022/12/18 05:36:09;;;;;;;18.70;6.20;;;-5.90;99.90;;;;;;5012061;28;20093;-67
2022/12/18 05:38:36;;;;;;;15.73;5.93;;;-6.00;99.90;;;;;;5012921;28;20067;-67
2022/12/18 05:41:02;;;;;;;17.90;6.60;;;-5.90;99.90;;;;;;5009919;28;20026;-68
2022/12/18 05:43:28;;;;;;;14.83;6.03;;;-5.80;99.90;;;;;;5012233;28;20026;-67
2022/12/18 05:45:54;;;;;;;15.23;7.03;;;-5.90;99.90;;;;;;5009137;28;20105;-66
2022/12/18 05:48:21;;;;;;;16.73;6.83;;;-6.00;99.90;;;;;;5012352;28;20092;-68
2022/12/18 05:50:48;;;;;;;15.20;6.63;;;-6.00;99.90;;;;;;5009792;28;20476;-67
2022/12/18 05:53:15;;;;;;;15.63;6.67;;;-6.20;99.90;;;;;;5012326;28;20690;-66
2022/12/18 05:55:42;;;;;;;15.70;6.73;;;-6.20;99.90;;;;;;5010606;28;20018;-67
2022/12/18 05:58:10;;;;;;;15.87;6.47;;;-6.20;99.90;;;;;;5012318;28;20022;-67
2022/12/18 06:00:41;;;;;;;16.37;6.10;;;-6.20;99.90;;;;;;5009484;28;20052;-68
2022/12/18 06:03:10;;;;;;;14.63;6.10;;;-6.20;99.90;;;;;;5011031;28;20555;-67
2022/12/18 06:05:39;;;;;;;18.53;5.97;;;-6.20;99.90;;;;;;5010530;28;20110;-65
2022/12/18 06:08:05;;;;;;;14.33;6.47;;;-6.20;99.90;;;;;;5012301;28;20025;-66
2022/12/18 06:10:30;;;;;;;14.30;6.03;;;-6.20;99.90;;;;;;5010286;28;20102;-67
2022/12/18 06:12:56;;;;;;;13.27;6.57;;;-6.20;99.90;;;;;;5010290;28;20022;-67
2022/12/18 06:15:21;;;;;;;15.63;6.63;;;-6.20;99.90;;;;;;5009198;28;20052;-66
2022/12/18 06:17:47;;;;;;;17.30;6.30;;;-6.20;99.90;;;;;;5010933;28;20056;-66
2022/12/18 06:20:13;;;;;;;18.47;6.80;;;-6.30;99.90;;;;;;5009772;28;20034;-67
2022/12/18 06:22:38;;;;;;;16.10;6.83;;;-6.20;99.90;;;;;;5010927;28;20563;-67
2022/12/18 06:25:05;;;;;;;14.30;6.17;;;-6.30;99.90;;;;;;5011518;28;20065;-66
2022/12/18 06:27:33;;;;;;;14.60;6.83;;;-6.30;99.90;;;;;;5010839;28;20018;-67
2022/12/18 06:29:59;;;;;;;18.17;6.53;;;-6.30;99.90;;;;;;5009226;28;20559;-67
2022/12/18 06:32:24;;;;;;;15.53;7.27;;;-6.20;99.90;;;;;;5008151;28;20025;-66
2022/12/18 06:34:50;;;;;;;18.93;7.57;;;-6.30;99.90;;;;;;5001904;28;20578;-66
2022/12/18 06:37:16;;;;;;;19.07;6.87;;;-6.30;99.90;;;;;;5010301;28;20792;-66
2022/12/18 06:39:41;;;;;;;14.10;6.53;;;-6.30;99.90;;;;;;5011675;28;20029;-67
2022/12/18 06:42:07;;;;;;;18.43;7.80;;;-6.20;99.90;;;;;;5010688;28;20054;-67
2022/12/18 06:44:32;;;;;;;13.53;6.43;;;-6.20;99.90;;;;;;5008096;28;20038;-65
2022/12/18 06:46:58;;;;;;;18.37;7.30;;;-6.10;99.90;;;;;;5009875;28;20038;-67
2022/12/18 06:49:24;;;;;;;17.33;6.90;;;-6.10;99.90;;;;;;5010819;28;20451;-66
2022/12/18 06:51:49;;;;;;;16.23;7.03;;;-6.10;99.90;;;;;;5009885;28;20041;-66
2022/12/18 06:54:15;;;;;;;14.87;6.43;;;-6.10;99.90;;;;;;5010346;28;20459;-67
2022/12/18 06:56:40;;;;;;;15.37;6.93;;;-6.10;99.90;;;;;;5010774;28;20025;-67
2022/12/18 06:59:06;;;;;;;16.53;6.70;;;-6.20;99.90;;;;;;5008542;28;20033;-66
2022/12/18 07:01:31;;;;;;;14.73;7.10;;;-6.10;99.90;;;;;;5009784;28;20034;-66
2022/12/18 07:03:57;;;;;;;17.50;7.23;;;-6.00;99.90;;;;;;5010398;28;20072;-65
2022/12/18 07:06:25;;;;;;;16.17;6.80;;;-5.90;99.90;;;;;;5010896;28;20476;-67
2022/12/18 07:08:53;;;;;;;16.83;6.27;;;-5.80;99.90;;;;;;5007761;28;20034;-67
2022/12/18 07:11:19;;;;;;;16.70;7.13;;;-5.80;99.90;;;;;;5009217;28;20026;-67
2022/12/18 07:13:45;;;;;;;21.03;6.47;;;-5.70;99.90;;;;;;5008616;28;20018;-66
2022/12/18 07:16:18;;;;;;;17.87;7.40;;;-5.70;99.90;;;;;;5010747;28;20022;-67
2022/12/18 07:18:45;;;;;;;15.25;6.97;;;-5.70;99.90;;;;;;5008528;28;20057;-68
2022/12/18 07:21:13;;;;;;;17.67;6.83;;;-5.80;99.90;;;;;;5018287;28;20097;-67
2022/12/18 07:23:39;;;;;;;15.37;6.20;;;-5.80;99.90;;;;;;5009552;28;20025;-65
2022/12/18 07:26:07;;;;;;;14.70;6.90;;;-5.90;99.90;;;;;;5011715;28;20480;-67
2022/12/18 07:28:33;;;;;;;18.40;6.67;;;-5.90;99.90;;;;;;5011937;28;20026;-67
2022/12/18 07:31:03;;;;;;;18.23;6.70;;;-5.90;99.90;;;;;;5014828;28;20036;-67
2022/12/18 07:33:29;;;;;;;16.10;6.47;;;-6.00;99.90;;;;;;5009028;28;20026;-67
2022/12/18 07:35:55;;;;;;;19.70;7.10;;;-6.10;99.90;;;;;;4996558;28;20050;-67
2022/12/18 07:38:21;;;;;;;21.33;7.07;;;-6.10;99.90;;;;;;5009198;28;20113;-67
2022/12/18 07:40:46;;;;;;;15.17;7.20;;;-6.10;99.90;;;;;;5009373;28;20450;-67
2022/12/18 07:43:12;;;;;;;14.87;7.13;;;-6.10;99.90;;;;;;5009419;28;20110;-66
2022/12/18 07:45:38;;;;;;;16.13;6.77;;;-6.00;99.90;;;;;;5008578;28;20096;-64
2022/12/18 07:48:04;;;;;;;19.53;6.87;;;-5.80;99.90;;;;;;5008964;28;20030;-68
2022/12/18 07:50:29;;;;;;;19.37;7.73;;;-5.70;99.90;;;;;;5008294;28;20022;-66
2022/12/18 07:52:55;;;;;;;16.10;7.47;;;-5.60;99.90;;;;;;5008499;28;20096;-67
2022/12/18 07:55:20;;;;;;;21.10;7.40;;;-5.60;99.90;;;;;;5009120;28;20041;-66
2022/12/18 07:57:46;;;;;;;15.77;6.53;;;-5.50;99.90;;;;;;5010444;28;20018;-66
2022/12/18 08:00:12;;;;;;;16.97;7.63;;;-5.40;99.90;;;;;;5007863;28;20068;-67
2022/12/18 08:02:38;;;;;;;17.27;7.40;;;-5.40;99.90;;;;;;5012624;28;20160;-68
2022/12/18 08:05:04;;;;;;;18.77;6.77;;;-5.30;99.90;;;;;;5013812;28;20068;-67
2022/12/18 08:07:29;;;;;;;16.47;6.97;;;-5.30;99.90;;;;;;5019011;28;20026;-68
2022/12/18 08:09:55;;;;;;;19.47;7.53;;;-5.20;99.90;;;;;;5022499;28;20034;-66
2022/12/18 08:12:20;;;;;;;14.77;6.07;;;-5.10;99.90;;;;;;5023987;28;20033;-68
2022/12/18 08:14:46;;;;;;;17.90;7.87;;;-5.00;99.90;;;;;;5023661;28;20488;-67
2022/12/18 08:17:11;;;;;;;11.90;6.10;;;-4.90;99.90;;;;;;5021785;28;20538;-65
2022/12/18 08:19:37;;;;;;;17.37;7.40;;;-4.80;99.90;;;;;;5020068;28;20072;-67
2022/12/18 08:22:02;;;;;;;17.17;7.17;;;-4.80;99.90;;;;;;5018858;28;20026;-67
2022/12/18 08:24:28;;;;;;;14.57;6.47;;;-4.80;99.90;;;;;;5024775;28;20669;-65
2022/12/18 08:26:54;;;;;;;15.77;6.70;;;-4.70;99.90;;;;;;5024308;28;20033;-66
2022/12/18 08:29:20;;;;;;;12.03;5.57;;;-4.60;99.90;;;;;;5024757;28;20022;-67
2022/12/18 08:31:45;;;;;;;15.57;7.00;;;-4.60;99.90;;;;;;5019231;28;20026;-66
2022/12/18 08:34:11;;;;;;;17.07;7.03;;;-4.50;99.90;;;;;;5020961;28;20109;-67
2022/12/18 08:36:36;;;;;;;18.30;6.77;;;-4.40;99.90;;;;;;5021470;28;20022;-66
2022/12/18 08:39:02;;;;;;;13.50;6.50;;;-4.30;99.90;;;;;;5020749;28;20037;-67
2022/12/18 08:41:28;;;;;;;13.60;5.77;;;-4.30;99.90;;;;;;5018616;28;20605;-66
2022/12/18 08:46:40;;;;;;;14.23;6.60;;;-4.20;99.90;;;;;;5014989;28;20040;-67
2022/12/18 08:49:08;;;;;;;13.83;6.80;;;-4.10;99.90;;;;;;5018648;28;20495;-66
2022/12/18 08:51:34;;;;;;;16.10;6.60;;;-4.10;99.90;;;;;;5018771;28;20084;-67
2022/12/18 08:54:00;;;;;;;23.20;7.57;;;-4.10;99.90;;;;;;5013944;28;20041;-68
2022/12/18 08:56:26;;;;;;;13.60;5.57;;;-4.00;99.90;;;;;;5011273;28;20038;-66
2022/12/18 08:58:53;;;;;;;17.60;7.60;;;-3.90;99.90;;;;;;5013267;28;20038;-66
2022/12/18 09:01:18;;;;;;;19.03;6.83;;;-3.80;99.90;;;;;;5012867;28;20152;-67
2022/12/18 09:03:44;;;;;;;16.10;6.33;;;-3.80;99.90;;;;;;5012148;28;20125;-66
2022/12/18 09:06:15;;;;;;;16.33;6.20;;;-3.70;99.90;;;;;;5011639;28;20484;-67
2022/12/18 09:08:41;;;;;;;12.50;5.87;;;-3.60;99.90;;;;;;5003430;28;20033;-67
2022/12/18 09:11:22;;;;;;;14.37;6.23;;;-3.50;99.90;;;;;;5012564;28;20601;-66
2022/12/18 09:13:48;;;;;;;13.83;6.03;;;-3.40;99.90;;;;;;5012395;28;20022;-67
2022/12/18 09:16:14;;;;;;;20.03;6.70;;;-3.30;99.90;;;;;;5012467;28;20029;-67
2022/12/18 09:18:39;;;;;;;17.80;7.00;;;-3.20;99.90;;;;;;5012735;28;20026;-67
2022/12/18 09:21:10;;;;;;;15.27;7.73;;;-3.00;99.90;;;;;;5011601;28;20198;-67
2022/12/18 09:23:36;;;;;;;17.13;6.93;;;-2.90;99.90;;;;;;5012071;28;20494;-67
2022/12/18 09:26:02;;;;;;;15.83;6.53;;;-2.80;99.90;;;;;;5012160;28;20101;-67
2022/12/18 09:28:28;;;;;;;13.70;6.53;;;-2.80;99.90;;;;;;5012319;28;20022;-67
2022/12/18 09:30:53;;;;;;;17.17;6.43;;;-2.70;99.90;;;;;;5010250;28;20042;-67
2022/12/18 09:33:19;;;;;;;15.03;6.80;;;-2.60;99.90;;;;;;5009560;28;20391;-67
2022/12/18 09:35:45;;;;;;;15.47;6.60;;;-2.60;99.90;;;;;;5008896;28;20022;-66
2022/12/18 09:38:17;;;;;;;12.20;6.07;;;-2.60;99.90;;;;;;5016586;28;20030;-66
2022/12/18 09:40:45;;;;;;;13.30;5.93;;;-2.50;99.90;;;;;;5010660;28;20099;-67
2022/12/18 09:43:18;;;;;;;14.03;6.77;;;-2.40;99.90;;;;;;5012434;28;20145;-67
2022/12/18 09:45:49;;;;;;;12.80;6.20;;;-2.40;99.90;;;;;;5004035;28;20678;-66
2022/12/18 09:48:30;;;;;;;18.17;7.30;;;-2.30;99.90;;;;;;5010931;28;20119;-67
2022/12/18 09:51:02;;;;;;;13.53;5.77;;;-2.20;99.90;;;;;;5010580;28;20368;-67
2022/12/18 09:53:31;;;;;;;14.17;6.17;;;-2.10;99.90;;;;;;5011502;28;20034;-66
2022/12/18 09:55:57;;;;;;;13.70;6.10;;;-2.00;99.90;;;;;;5012118;28;20093;-67
2022/12/18 09:58:39;;;;;;;16.43;6.70;;;-1.90;99.90;;;;;;5011627;28;20057;-66
2022/12/18 10:01:12;;;;;;;15.07;6.93;;;-1.80;99.90;;;;;;5007445;28;20028;-66
2022/12/18 10:03:37;;;;;;;16.90;6.70;;;-1.70;99.90;;;;;;5011012;28;20022;-66
2022/12/18 10:06:21;;;;;;;12.00;6.10;;;-1.60;99.90;;;;;;5011350;28;20093;-67
2022/12/18 10:08:57;;;;;;;13.30;5.40;;;-1.50;99.90;;;;;;5012274;28;20491;-67
2022/12/18 10:11:39;;;;;;;14.33;6.90;;;-1.40;99.90;;;;;;5009835;28;20363;-67
2022/12/18 10:14:09;;;;;;;11.13;5.80;;;-1.30;99.90;;;;;;5007261;28;20064;-67
2022/12/18 10:17:01;;;;;;;18.80;6.33;;;-1.30;99.90;;;;;;5006057;28;20115;-67
2022/12/18 10:19:35;;;;;;;13.40;6.70;;;-1.20;99.90;;;;;;5003817;28;20057;-67
2022/12/18 10:22:13;;;;;;;15.23;5.63;;;-1.20;99.90;;;;;;5007830;28;20026;-66
2022/12/18 10:25:14;;;;;;;14.53;6.60;;;-1.00;99.90;;;;;;5012942;28;20065;-67
2022/12/18 10:27:40;;;;;;;15.33;6.90;;;-1.00;99.90;;;;;;5013727;28;20025;-65
2022/12/18 10:30:17;;;;;;;12.07;6.07;;;-0.90;99.90;;;;;;5009138;28;20095;-67
2022/12/18 10:32:43;;;;;;;11.07;5.43;;;-0.80;99.90;;;;;;5015431;28;20030;-67
2022/12/18 10:35:26;;;;;;;13.33;5.80;;;-0.70;99.90;;;;;;5014068;28;20037;-67
2022/12/18 10:38:17;;;;;;;11.07;5.40;;;-0.60;99.90;;;;;;5004028;28;20106;-67
2022/12/18 10:41:26;;;;;;;16.80;6.33;;;-0.50;99.90;;;;;;5008385;28;20299;-67
2022/12/18 10:44:18;;;;;;;12.73;5.35;;;-0.50;99.90;;;;;;4998911;28;20504;-67
2022/12/18 10:46:50;;;;;;;13.90;6.03;;;-0.40;99.90;;;;;;5004124;28;20068;-67
2022/12/18 10:49:25;;;;;;;14.55;5.50;;;-0.30;99.90;;;;;;5008633;28;20053;-67
2022/12/18 10:51:52;;;;;;;20.08;6.13;;;-0.30;99.90;;;;;;5009268;28;20056;-66
2022/12/18 10:54:22;;;;;;;10.88;5.63;;;-0.20;99.90;;;;;;5008551;28;20084;-66
2022/12/18 10:56:48;;;;;;;16.85;6.03;;;-0.20;99.90;;;;;;5009635;28;20499;-66
2022/12/18 10:59:16;;;;;;;14.13;5.70;;;-0.20;99.90;;;;;;5009350;28;20487;-66
2022/12/18 11:01:56;;;;;;;17.00;6.82;;;-0.10;99.90;;;;;;5010487;28;20562;-65
2022/12/18 11:04:24;;;;;;;12.15;6.20;;;0.00;99.90;;;;;;5005711;28;20026;-67
2022/12/18 11:07:04;;;;;;;12.68;5.82;;;-0.10;99.90;;;;;;5007684;28;20033;-67
2022/12/18 11:09:32;;;;;;;15.40;6.35;;;0.00;99.90;;;;;;5009038;28;20037;-66
2022/12/18 11:12:01;;;;;;;13.65;6.53;;;0.00;99.90;;;;;;5019764;28;20026;-67
2022/12/18 11:14:33;;;;;;;14.23;6.10;;;0.10;99.90;;;;;;5024605;28;20036;-67
2022/12/18 11:17:00;;;;;;;14.05;6.13;;;0.20;99.90;;;;;;5012845;28;20037;-67
2022/12/18 11:19:37;;;;;;;18.20;6.78;;;0.20;99.90;;;;;;5007035;28;20054;-68
2022/12/18 11:22:23;;;;;;;12.15;5.75;;;0.30;99.90;;;;;;5016446;28;20037;-68
2022/12/18 11:25:06;;;;;;;13.93;6.40;;;0.40;99.90;;;;;;5007508;28;20518;-68
2022/12/18 11:27:32;;;;;;;12.57;6.15;;;0.40;99.90;;;;;;5023078;28;20574;-67
2022/12/18 11:30:21;;;;;;;12.68;6.22;;;0.40;99.90;;;;;;5010351;28;20053;-68
2022/12/18 11:33:08;;;;;;;16.77;6.57;;;0.40;99.90;;;;;;5004288;28;20096;-66
2022/12/18 11:35:58;;;;;;;14.07;6.97;;;0.40;99.90;;;;;;5014371;28;20036;-67
2022/12/18 11:38:30;;;;;;;14.95;6.80;;;0.40;99.90;;;;;;5004366;28;20440;-67
2022/12/18 11:41:05;;;;;;;13.52;7.45;;;0.40;99.90;;;;;;5024710;28;20033;-68
2022/12/18 11:43:30;;;;;;;;;;;0.40;99.90;;;;;;5010002;28;20532;-68
2022/12/18 11:46:04;;;;;;;17.02;7.53;;;0.30;99.90;;;;;;5009585;28;19937;-68
2022/12/18 11:48:36;;;;;;;15.63;6.70;;;0.30;99.90;;;;;;5001710;28;20511;-68
2022/12/18 11:51:09;;;;;;;14.95;7.60;;;0.20;99.90;;;;;;5008400;28;20030;-68
2022/12/18 11:53:38;;;;;;;14.70;7.55;;;0.20;99.90;;;;;;5004538;28;20057;-68
2022/12/18 11:56:32;;;;;;;16.42;8.38;;;0.20;99.90;;;;;;5005069;28;20083;-68
2022/12/18 11:59:05;;;;;;;14.20;6.95;;;0.20;99.90;;;;;;5007363;28;20029;-67
2022/12/18 12:02:12;;;;;;;16.35;7.40;;;0.10;99.90;;;;;;5004912;28;20034;-67
2022/12/18 12:04:46;;;;;;;17.10;8.85;;;0.00;99.90;;;;;;5010194;28;20026;-68
2022/12/18 12:07:45;;;;;;;18.77;7.65;;;-0.10;99.90;;;;;;5007663;28;20423;-68
2022/12/18 12:10:31;;;;;;;20.50;7.75;;;0.00;99.90;;;;;;5008727;28;20529;-67
2022/12/18 12:13:13;;;;;;;18.55;8.00;;;-0.10;99.90;;;;;;5018363;28;20080;-67
2022/12/18 12:15:57;;;;;;;16.38;7.70;;;-0.10;99.90;;;;;;5005661;28;20105;-67
2022/12/18 12:18:41;;;;;;;16.03;7.93;;;-0.20;99.90;;;;;;5003745;28;20030;-68
2022/12/18 12:21:40;;;;;;;16.95;8.00;;;-0.10;99.90;;;;;;5002158;28;20285;-66
2022/12/18 12:24:17;;;;;;;18.75;9.13;;;-0.20;99.90;;;;;;5002446;28;20042;-67
2022/12/18 12:26:51;;;;;;;22.73;8.30;;;-0.20;99.90;;;;;;5007789;28;20036;-67
2022/12/18 12:29:50;;;;;;;22.33;8.98;;;-0.20;99.90;;;;;;5007988;28;20137;-68
2022/12/18 12:33:00;;;;;;;16.85;8.48;;;-0.20;99.90;;;;;;5005374;28;20030;-67
2022/12/18 12:35:51;;;;;;;17.92;8.32;;;-0.10;99.90;;;;;;4999041;28;20042;-68
2022/12/18 12:38:26;;;;;;;23.85;9.18;;;-0.30;99.90;;;;;;5007091;28;20025;-68
2022/12/18 12:41:01;;;;;;;21.60;9.57;;;-0.40;99.90;;;;;;5005788;28;20025;-67
2022/12/18 12:43:41;;;;;;;25.10;9.68;;;-0.40;99.90;;;;;;5004937;28;20026;-66
2022/12/18 12:46:13;;;;;;;17.60;8.95;;;-0.40;99.90;;;;;;5001295;28;20149;-67
2022/12/18 12:48:52;;;;;;;17.10;8.63;;;-0.50;99.90;;;;;;5006722;28;20029;-65
2022/12/18 12:51:25;;;;;;;23.08;10.02;;;-0.50;99.90;;;;;;5006947;28;20104;-67
2022/12/18 12:53:54;;;;;;;20.47;8.47;;;-0.60;99.90;;;;;;5008008;28;20484;-67
2022/12/18 12:56:21;;;;;;;24.80;10.07;;;-0.60;99.90;;;;;;5003240;28;20049;-66
2022/12/18 12:59:01;;;;;;;19.27;9.23;;;-0.70;99.90;;;;;;5008696;28;20041;-68
2022/12/18 13:01:36;;;;;;;21.67;8.90;;;-0.70;99.90;;;;;;5009018;28;20424;-66